createdAt,value
2023-09-08T00:00:25.921Z,59.88
2023-09-08T00:03:11.517Z,60.29
2023-09-08T00:05:56.589Z,60.72
2023-09-08T00:08:42.049Z,61.79
2023-09-08T00:11:26.921Z,60.92
2023-09-08T00:14:12.264Z,60.84
2023-09-08T00:16:57.437Z,60.27
2023-09-08T00:19:42.628Z,62.92
2023-09-08T00:22:28.028Z,61.34
2023-09-08T00:25:12.880Z,61.36
2023-09-08T00:27:57.828Z,62.54
2023-09-08T00:30:42.805Z,61.40
2023-09-08T00:33:28.511Z,60.98
2023-09-08T00:36:13.368Z,62.61
2023-09-08T00:38:58.886Z,61.29
2023-09-08T00:41:43.894Z,61.19
2023-09-08T00:44:28.905Z,61.53
2023-09-08T00:47:14.250Z,63.23
2023-09-08T00:49:59.884Z,62.63
2023-09-08T00:52:45.212Z,62.18
2023-09-08T00:55:30.863Z,63.77
2023-09-08T00:58:16.144Z,62.39
2023-09-08T01:01:01.418Z,63.93
2023-09-08T01:03:46.923Z,62.36
2023-09-08T01:06:33.835Z,62.34
2023-09-08T01:09:20.271Z,63.73
2023-09-08T01:12:07.739Z,63.34
2023-09-08T01:14:52.783Z,62.78
2023-09-08T01:17:37.652Z,62.35
2023-09-08T01:20:31.192Z,63.72
2023-09-08T01:23:29.237Z,63.08
2023-09-08T01:26:22.558Z,62.12
2023-09-08T01:29:07.888Z,60.66
2023-09-08T01:31:53.347Z,60.03
2023-09-08T01:34:40.736Z,59.54
2023-09-08T01:37:25.619Z,60.92
2023-09-08T01:40:12.089Z,62.22
2023-09-08T01:42:57.369Z,60.29
2023-09-08T01:45:42.710Z,57.87
2023-09-08T01:48:27.656Z,58.03
2023-09-08T01:51:12.580Z,58.53
2023-09-08T01:53:57.608Z,56.94
2023-09-08T01:56:42.648Z,58.35
2023-09-08T01:59:27.554Z,58.15
2023-09-08T02:02:12.900Z,58.05
2023-09-08T02:04:57.887Z,58.10
2023-09-08T02:07:42.971Z,57.72
2023-09-08T02:10:28.210Z,59.89
2023-09-08T02:13:13.584Z,59.80
2023-09-08T02:15:59.652Z,59.62
2023-09-08T02:18:46.154Z,59.22
2023-09-08T02:21:31.192Z,57.69
2023-09-08T02:24:16.575Z,60.66
2023-09-08T02:27:01.593Z,59.83
2023-09-08T02:29:46.540Z,62.01
2023-09-08T02:32:31.484Z,63.31
2023-09-08T02:35:17.146Z,66.85
2023-09-08T02:38:02.033Z,65.62
2023-09-08T02:40:46.924Z,63.54
2023-09-08T02:43:31.768Z,60.17
2023-09-08T02:46:17.644Z,59.25
2023-09-08T02:49:03.943Z,58.59
2023-09-08T02:51:49.645Z,60.04
2023-09-08T02:54:34.554Z,64.16
2023-09-08T02:57:19.538Z,65.72
2023-09-08T03:00:05.879Z,64.59
2023-09-08T03:02:50.822Z,59.69
2023-09-08T03:05:36.132Z,57.89
2023-09-08T03:08:24.321Z,57.51
2023-09-08T03:11:09.885Z,58.01
2023-09-08T03:13:55.582Z,59.78
2023-09-08T03:16:41.019Z,62.65
2023-09-08T03:19:26.129Z,60.17
2023-09-08T03:22:11.514Z,59.35
2023-09-08T03:24:56.349Z,60.04
2023-09-08T03:27:41.509Z,60.79
2023-09-08T03:30:26.680Z,59.94
2023-09-08T03:33:12.445Z,62.16
2023-09-08T03:35:58.242Z,61.22
2023-09-08T03:38:43.670Z,60.32
2023-09-08T03:41:28.589Z,60.32
2023-09-08T03:44:13.483Z,60.81
2023-09-08T03:46:58.363Z,61.11
2023-09-08T03:49:43.709Z,62.64
2023-09-08T03:52:29.050Z,62.03
2023-09-08T03:55:14.904Z,63.54
2023-09-08T03:58:00.068Z,62.60
2023-09-08T04:00:44.942Z,61.61
2023-09-08T04:03:30.481Z,60.30
2023-09-08T04:06:16.503Z,58.98
2023-09-08T04:09:01.753Z,58.58
2023-09-08T04:11:46.679Z,59.09
2023-09-08T04:14:32.598Z,61.19
2023-09-08T04:17:19.336Z,61.39
2023-09-08T04:20:09.185Z,60.88
2023-09-08T04:22:54.376Z,58.67
2023-09-08T04:25:39.736Z,59.72
2023-09-08T04:28:25.018Z,61.22
2023-09-08T04:31:10.053Z,63.55
2023-09-08T04:33:55.986Z,65.55
2023-09-08T04:36:40.926Z,66.07
2023-09-08T04:39:25.763Z,63.08
2023-09-08T04:42:10.875Z,61.36
2023-09-08T04:44:56.560Z,62.73
2023-09-08T04:47:41.479Z,65.85
2023-09-08T04:50:26.867Z,66.07
2023-09-08T04:53:11.772Z,67.07
2023-09-08T04:55:56.894Z,67.87
2023-09-08T04:58:41.790Z,67.87
2023-09-08T05:01:26.814Z,68.83
2023-09-08T05:04:13.028Z,69.88
2023-09-08T05:06:57.979Z,70.00
2023-09-08T05:09:43.111Z,68.32
2023-09-08T05:12:27.903Z,65.17
2023-09-08T05:15:16.458Z,65.15
2023-09-08T05:18:02.063Z,63.80
2023-09-08T05:20:49.073Z,64.45
2023-09-08T05:23:34.862Z,62.11
2023-09-08T05:26:19.785Z,61.33
2023-09-08T05:29:04.847Z,60.28
2023-09-08T05:31:50.521Z,60.87
2023-09-08T05:34:35.514Z,62.92
2023-09-08T05:37:20.446Z,65.18
2023-09-08T05:40:06.541Z,65.31
2023-09-08T05:42:52.135Z,66.39
2023-09-08T05:45:37.478Z,64.51
2023-09-08T05:48:22.328Z,64.83
2023-09-08T05:51:08.009Z,60.50
2023-09-08T05:53:53.044Z,59.34
2023-09-08T05:56:39.717Z,60.64
2023-09-08T05:59:24.993Z,63.40
2023-09-08T06:02:10.146Z,63.79
2023-09-08T06:04:56.822Z,64.24
2023-09-08T06:07:50.916Z,63.11
2023-09-08T06:10:43.071Z,64.88
2023-09-08T06:13:28.316Z,65.38
2023-09-08T06:16:13.553Z,64.02
2023-09-08T06:18:58.794Z,63.07
2023-09-08T06:21:43.804Z,60.61
2023-09-08T06:24:29.080Z,63.15
2023-09-08T06:27:15.733Z,64.20
2023-09-08T06:30:00.837Z,65.57
2023-09-08T06:32:46.042Z,66.16
2023-09-08T06:35:31.230Z,66.43
2023-09-08T06:38:16.234Z,65.76
2023-09-08T06:41:02.356Z,66.38
2023-09-08T06:43:47.567Z,66.73
2023-09-08T06:46:32.623Z,66.12
2023-09-08T06:49:18.036Z,65.45
2023-09-08T06:52:03.688Z,65.89
2023-09-08T06:54:48.759Z,66.30
2023-09-08T06:57:34.255Z,66.01
2023-09-08T07:00:21.349Z,65.54
2023-09-08T07:03:07.354Z,65.11
2023-09-08T07:05:52.925Z,64.95
2023-09-08T07:08:38.295Z,65.05
2023-09-08T07:11:23.344Z,65.44
2023-09-08T07:14:08.424Z,64.62
2023-09-08T07:16:53.708Z,63.95
2023-09-08T07:19:39.635Z,64.23
2023-09-08T07:22:24.703Z,63.60
2023-09-08T07:25:10.901Z,64.20
2023-09-08T07:27:55.945Z,63.25
2023-09-08T07:30:41.383Z,62.74
2023-09-08T07:33:26.567Z,62.89
2023-09-08T07:36:12.109Z,62.92
2023-09-08T07:38:57.208Z,63.47
2023-09-08T07:41:42.577Z,62.04
2023-09-08T07:44:28.006Z,61.40
2023-09-08T07:47:13.159Z,59.94
2023-09-08T07:50:24.888Z,60.39
2023-09-08T07:53:09.895Z,59.76
2023-09-08T07:55:55.424Z,59.47
2023-09-08T07:58:40.884Z,58.80
2023-09-08T08:01:26.319Z,58.53
2023-09-08T08:04:11.821Z,57.54
2023-09-08T08:06:57.236Z,57.65
2023-09-08T08:09:44.922Z,56.64
2023-09-08T08:12:30.501Z,56.34
2023-09-08T08:15:15.912Z,56.69
2023-09-08T08:18:01.051Z,56.14
2023-09-08T08:20:46.380Z,55.42
2023-09-08T08:23:32.278Z,55.74
2023-09-08T08:26:19.448Z,57.29
2023-09-08T08:29:04.921Z,55.61
2023-09-08T08:31:50.802Z,54.62
2023-09-08T08:34:35.647Z,54.59
2023-09-08T08:37:20.629Z,55.24
2023-09-08T08:40:06.743Z,54.86
2023-09-08T08:42:55.951Z,54.88
2023-09-08T08:45:44.156Z,54.83
2023-09-08T08:48:30.863Z,54.76
2023-09-08T08:51:18.986Z,53.63
2023-09-08T08:54:06.714Z,53.83
2023-09-08T08:56:52.773Z,53.32
2023-09-08T08:59:38.033Z,53.79
2023-09-08T09:02:26.502Z,53.38
2023-09-08T09:05:15.834Z,52.93
2023-09-08T09:08:04.343Z,51.23
2023-09-08T09:10:50.353Z,51.73
2023-09-08T09:13:35.562Z,52.39
2023-09-08T09:16:21.373Z,51.36
2023-09-08T09:19:06.281Z,50.85
2023-09-08T09:21:55.665Z,49.76
2023-09-08T09:24:44.466Z,49.24
2023-09-08T09:27:32.305Z,48.85
2023-09-08T09:30:17.263Z,48.61
2023-09-08T09:33:06.204Z,48.46
2023-09-08T09:35:54.022Z,49.42
2023-09-08T09:38:38.961Z,47.32
2023-09-08T09:41:24.326Z,49.73
2023-09-08T09:44:10.506Z,47.74
2023-09-08T09:46:55.966Z,46.36
2023-09-08T09:49:48.969Z,47.40
2023-09-08T09:52:40.384Z,46.50
2023-09-08T09:55:26.167Z,45.43
2023-09-08T09:58:12.367Z,46.26
2023-09-08T10:00:57.660Z,45.01
2023-09-08T10:03:43.503Z,45.02
2023-09-08T10:06:29.029Z,42.43
2023-09-08T10:09:15.229Z,44.04
2023-09-08T10:12:05.819Z,41.85
2023-09-08T10:14:54.968Z,42.75
2023-09-08T10:17:42.548Z,42.27
2023-09-08T10:20:29.752Z,42.20
2023-09-08T10:23:25.490Z,42.48
2023-09-08T10:26:12.452Z,40.28
2023-09-08T10:28:58.102Z,41.31
2023-09-08T10:31:44.909Z,39.03
2023-09-08T10:34:32.190Z,39.90
2023-09-08T10:37:27.105Z,39.32
2023-09-08T10:40:27.643Z,39.03
2023-09-08T10:43:12.514Z,40.14
2023-09-08T10:45:58.285Z,37.58
2023-09-08T10:48:47.143Z,36.88
2023-09-08T10:51:32.103Z,36.53
2023-09-08T10:54:44.296Z,36.92
2023-09-08T10:57:32.231Z,36.52
2023-09-08T11:00:19.064Z,35.85
2023-09-08T11:03:07.459Z,34.72
2023-09-08T11:05:52.568Z,35.38
2023-09-08T11:08:47.336Z,34.75
2023-09-08T11:11:34.455Z,34.93
2023-09-08T11:14:19.707Z,33.80
2023-09-08T11:17:04.778Z,34.02
2023-09-08T11:19:51.338Z,33.69
2023-09-08T11:22:37.684Z,33.80
2023-09-08T11:25:23.509Z,33.22
2023-09-08T11:28:08.960Z,32.43
2023-09-08T11:30:56.281Z,32.76
2023-09-08T11:33:41.503Z,33.38
2023-09-08T11:36:27.424Z,33.45
2023-09-08T11:39:12.657Z,32.45
2023-09-08T11:42:02.634Z,32.87
2023-09-08T11:44:49.105Z,32.84
2023-09-08T11:47:34.082Z,32.45
2023-09-08T11:50:20.191Z,31.44
2023-09-08T11:53:05.171Z,31.86
2023-09-08T11:55:50.559Z,32.12
2023-09-08T11:58:35.763Z,31.75
2023-09-08T12:01:21.327Z,33.27
2023-09-08T12:04:06.461Z,31.79
2023-09-08T12:06:54.156Z,29.87
2023-09-08T12:09:38.992Z,29.90
2023-09-08T12:12:24.009Z,31.44
2023-09-08T12:15:09.160Z,30.11
2023-09-08T12:17:54.770Z,30.01
2023-09-08T12:20:41.010Z,30.60
2023-09-08T12:23:26.190Z,29.69
2023-09-08T12:26:11.586Z,31.28
2023-09-08T12:28:56.792Z,30.15
2023-09-08T12:31:43.805Z,29.73
2023-09-08T12:34:28.868Z,29.83
2023-09-08T12:37:14.256Z,29.91
2023-09-08T12:40:02.014Z,29.51
2023-09-08T12:42:49.905Z,30.00
2023-09-08T12:45:47.756Z,29.08
2023-09-08T12:48:34.225Z,29.87
2023-09-08T12:51:19.414Z,29.08
2023-09-08T12:54:04.870Z,29.04
2023-09-08T12:56:51.704Z,29.59
2023-09-08T12:59:36.915Z,28.39
2023-09-08T13:02:22.425Z,27.14
2023-09-08T13:05:09.074Z,28.13
2023-09-08T13:07:54.376Z,27.09
2023-09-08T13:10:39.978Z,27.22
2023-09-08T13:13:25.437Z,27.87
2023-09-08T13:16:10.501Z,27.19
2023-09-08T13:18:56.174Z,27.24
2023-09-08T13:21:41.329Z,27.68
2023-09-08T13:24:26.686Z,27.20
2023-09-08T13:27:12.564Z,27.02
2023-09-08T13:30:14.196Z,28.31
2023-09-08T13:32:59.726Z,26.67
2023-09-08T13:35:44.610Z,25.56
2023-09-08T13:38:29.889Z,27.11
2023-09-08T13:41:16.124Z,27.20
2023-09-08T13:44:01.903Z,26.74
2023-09-08T13:46:47.951Z,26.94
2023-09-08T13:49:33.734Z,26.25
2023-09-08T13:52:19.348Z,27.45
2023-09-08T13:55:30.332Z,26.42
2023-09-08T13:58:09.952Z,26.40
2023-09-08T14:00:59.684Z,27.29
2023-09-08T14:04:02.706Z,25.99
2023-09-08T14:06:50.959Z,26.39
2023-09-08T14:09:49.388Z,25.69
2023-09-08T14:12:39.247Z,27.30
2023-09-08T14:15:24.546Z,25.89
2023-09-08T14:18:09.628Z,26.06
2023-09-08T14:20:54.650Z,26.24
2023-09-08T14:23:39.817Z,26.11
2023-09-08T14:26:25.863Z,26.24
2023-09-08T14:29:11.123Z,26.47
2023-09-08T14:31:56.606Z,26.58
2023-09-08T14:34:41.597Z,25.75
2023-09-08T14:37:26.909Z,25.21
2023-09-08T14:40:13.330Z,25.77
2023-09-08T14:42:58.392Z,25.69
2023-09-08T14:45:43.355Z,25.51
2023-09-08T14:48:28.466Z,25.47
2023-09-08T14:51:13.653Z,24.77
2023-09-08T14:53:59.504Z,24.43
2023-09-08T14:56:44.395Z,24.49
2023-09-08T14:59:29.301Z,23.55
2023-09-08T15:02:14.345Z,22.87
2023-09-08T15:04:59.522Z,22.77
2023-09-08T15:07:44.426Z,22.67
2023-09-08T15:10:29.851Z,22.70
2023-09-08T15:13:14.838Z,23.29
2023-09-08T15:16:00.785Z,22.08
2023-09-08T15:18:45.857Z,23.21
2023-09-08T15:21:33.230Z,23.35
2023-09-08T15:24:18.299Z,24.13
2023-09-08T15:27:04.207Z,22.69
2023-09-08T15:29:49.589Z,23.75
2023-09-08T15:32:34.551Z,25.43
2023-09-08T15:35:20.208Z,27.05
2023-09-08T15:38:05.524Z,27.35
2023-09-08T15:41:09.440Z,27.33
2023-09-08T15:43:56.274Z,29.02
2023-09-08T15:46:42.326Z,28.28
2023-09-08T15:49:27.476Z,29.37
2023-09-08T15:52:16.491Z,29.32
2023-09-08T15:55:01.947Z,30.78
2023-09-08T15:57:47.055Z,30.80
2023-09-08T16:00:34.015Z,31.43
2023-09-08T16:03:19.577Z,31.78
2023-09-08T16:06:04.933Z,32.47
2023-09-08T16:08:50.209Z,32.63
2023-09-08T16:11:35.331Z,33.11
2023-09-08T16:14:20.479Z,32.50
2023-09-08T16:17:05.938Z,32.83
2023-09-08T16:19:51.122Z,31.83
2023-09-08T16:22:36.419Z,32.39
2023-09-08T16:25:21.951Z,32.01
2023-09-08T16:28:07.281Z,32.48
2023-09-08T16:30:53.150Z,32.54
2023-09-08T16:33:38.696Z,32.77
2023-09-08T16:36:24.535Z,32.98
2023-09-08T16:39:09.613Z,33.58
2023-09-08T16:41:55.128Z,33.98
2023-09-08T16:44:44.489Z,33.31
2023-09-08T16:47:30.563Z,33.49
2023-09-08T16:50:15.638Z,33.90
2023-09-08T16:53:03.651Z,34.20
2023-09-08T16:55:48.898Z,34.58
2023-09-08T16:58:33.895Z,34.83
2023-09-08T17:01:19.491Z,35.50
2023-09-08T17:04:04.763Z,36.60
2023-09-08T17:06:50.397Z,35.38
2023-09-08T17:09:35.632Z,35.06
2023-09-08T17:12:21.187Z,35.33
2023-09-08T17:15:07.663Z,36.66
2023-09-08T17:17:53.034Z,36.63
2023-09-08T17:20:38.151Z,37.77
2023-09-08T17:23:25.169Z,38.49
2023-09-08T17:26:11.196Z,38.40
2023-09-08T17:28:56.344Z,39.15
2023-09-08T17:31:41.659Z,40.21
2023-09-08T17:34:26.900Z,39.33
2023-09-08T17:37:11.847Z,39.62
2023-09-08T17:39:57.023Z,39.69
2023-09-08T17:42:42.336Z,40.45
2023-09-08T17:45:28.135Z,41.69
2023-09-08T17:48:13.634Z,40.78
2023-09-08T17:50:59.728Z,41.84
2023-09-08T17:53:44.994Z,42.08
2023-09-08T17:56:31.103Z,41.98
2023-09-08T17:59:16.278Z,43.53
2023-09-08T18:02:01.779Z,44.78
2023-09-08T18:04:46.999Z,45.39
2023-09-08T18:07:32.392Z,45.78
2023-09-08T18:10:17.656Z,46.51
2023-09-08T18:13:02.961Z,46.95
2023-09-08T18:15:47.795Z,47.34
2023-09-08T18:18:33.766Z,47.86
2023-09-08T18:21:18.803Z,48.30
2023-09-08T18:24:04.156Z,48.54
2023-09-08T18:26:49.328Z,48.32
2023-09-08T18:29:34.438Z,49.24
2023-09-08T18:32:19.726Z,49.59
2023-09-08T18:35:05.419Z,49.51
2023-09-08T18:37:50.511Z,49.08
2023-09-08T18:40:36.299Z,49.53
2023-09-08T18:43:21.547Z,49.52
2023-09-08T18:46:07.050Z,49.97
2023-09-08T18:48:52.062Z,50.09
2023-09-08T18:51:37.790Z,50.63
2023-09-08T18:54:28.013Z,50.83
2023-09-08T18:57:13.143Z,51.20
2023-09-08T18:59:58.750Z,51.91
2023-09-08T19:02:44.211Z,52.15
2023-09-08T19:05:29.405Z,52.71
2023-09-08T19:08:14.785Z,52.59
2023-09-08T19:11:00.091Z,52.73
2023-09-08T19:13:45.901Z,53.24
2023-09-08T19:16:31.830Z,53.41
2023-09-08T19:19:16.765Z,53.36
2023-09-08T19:22:02.215Z,53.70
2023-09-08T19:24:49.245Z,52.92
2023-09-08T19:27:34.184Z,53.36
2023-09-08T19:30:19.884Z,53.23
2023-09-08T19:33:05.556Z,53.71
2023-09-08T19:35:50.996Z,52.34
2023-09-08T19:38:35.820Z,52.80
2023-09-08T19:41:25.242Z,53.26
2023-09-08T19:44:10.282Z,52.12
2023-09-08T19:46:55.670Z,51.58
2023-09-08T19:49:42.758Z,52.63
2023-09-08T19:52:28.347Z,52.57
2023-09-08T19:57:59.800Z,51.45
2023-09-08T20:00:45.068Z,53.07
2023-09-08T20:03:30.362Z,52.89
2023-09-08T20:06:16.603Z,53.08
2023-09-08T20:09:02.065Z,53.48
2023-09-08T20:11:47.299Z,52.78
2023-09-08T20:14:33.402Z,53.91
2023-09-08T20:17:19.315Z,54.24
2023-09-08T20:20:05.927Z,53.90
2023-09-08T20:22:51.185Z,54.41
2023-09-08T20:25:36.554Z,54.08
2023-09-08T20:28:21.706Z,54.79
2023-09-08T20:31:17.069Z,54.30
2023-09-08T20:34:03.928Z,54.35
2023-09-08T20:36:48.930Z,54.81
2023-09-08T20:39:34.031Z,54.13
2023-09-08T20:42:19.534Z,54.16
2023-09-08T20:45:05.063Z,54.92
2023-09-08T20:47:50.711Z,55.02
2023-09-08T20:50:36.037Z,54.41
2023-09-08T20:53:21.554Z,54.07
2023-09-08T20:56:08.714Z,55.05
2023-09-08T20:58:53.756Z,55.23
2023-09-08T21:01:39.607Z,54.06
2023-09-08T21:04:24.709Z,54.83
2023-09-08T21:07:10.444Z,54.92
2023-09-08T21:09:56.125Z,55.88
2023-09-08T21:12:41.368Z,55.68
2023-09-08T21:15:26.618Z,55.30
2023-09-08T21:18:11.821Z,56.56
2023-09-08T21:20:56.881Z,56.58
2023-09-08T21:23:43.113Z,56.62
2023-09-08T21:26:28.902Z,55.59
2023-09-08T21:29:14.790Z,55.77
2023-09-08T21:32:00.315Z,55.63
2023-09-08T21:34:45.525Z,56.20
2023-09-08T21:37:31.105Z,55.83
2023-09-08T21:40:17.275Z,56.12
2023-09-08T21:43:03.877Z,56.20
2023-09-08T21:45:52.201Z,55.70
2023-09-08T21:48:37.611Z,55.71
2023-09-08T21:51:23.285Z,57.06
2023-09-08T21:54:08.563Z,55.75
2023-09-08T21:56:53.849Z,55.87
2023-09-08T21:59:39.312Z,55.09
2023-09-08T22:02:24.209Z,54.71
2023-09-08T22:05:10.127Z,55.50
2023-09-08T22:07:55.399Z,55.56
2023-09-08T22:10:40.650Z,57.15
2023-09-08T22:13:26.042Z,56.59
2023-09-08T22:16:11.381Z,57.87
2023-09-08T22:18:57.049Z,57.76
2023-09-08T22:21:45.827Z,58.66
2023-09-08T22:24:31.816Z,58.85
2023-09-08T22:27:16.902Z,59.03
2023-09-08T22:30:05.106Z,58.89
2023-09-08T22:32:51.003Z,58.43
2023-09-08T22:35:37.618Z,57.58
2023-09-08T22:38:23.100Z,57.08
2023-09-08T22:41:08.395Z,55.96
2023-09-08T22:43:53.986Z,56.45
2023-09-08T22:46:39.080Z,56.57
2023-09-08T22:49:25.161Z,55.92
2023-09-08T22:52:10.621Z,55.77
2023-09-08T22:55:05.421Z,56.09
2023-09-08T22:57:58.697Z,55.60
2023-09-08T23:00:44.334Z,56.12
2023-09-08T23:03:29.503Z,57.08
2023-09-08T23:06:15.247Z,56.30
2023-09-08T23:09:01.034Z,56.15
2023-09-08T23:11:46.369Z,55.85
2023-09-08T23:14:32.423Z,56.35
2023-09-08T23:17:17.862Z,55.54
2023-09-08T23:20:08.979Z,54.94
2023-09-08T23:22:54.273Z,54.91
2023-09-08T23:25:39.616Z,54.62
2023-09-08T23:28:25.193Z,55.11
2023-09-08T23:31:10.212Z,55.82
2023-09-08T23:33:55.610Z,55.75
2023-09-08T23:36:40.750Z,55.60
2023-09-08T23:39:26.651Z,55.17
2023-09-08T23:42:11.904Z,54.76
2023-09-08T23:44:56.703Z,55.85
2023-09-08T23:47:41.810Z,55.86
2023-09-08T23:50:51.021Z,56.47
2023-09-08T23:53:38.805Z,55.92
2023-09-08T23:56:23.908Z,56.67
2023-09-08T23:59:09.520Z,56.93
